Volzhskiy-8 — UCBR — position and weather

sailwx.info

Track history (hours):
 
Tides and Currents Weather Stations Pressure Air Temp Water Temp Dewpoint Dewpoint Depression Visibility Wind Speed Wind Dir Waves Ship Positions

Volzhskiy-8

Last reported at 2017-Nov-24 20:09 UTC. Time now 2017-Dec-11 02:33 UTC.
Position N 45°31' E 036°46'.
Warning: this ship's position is 16 days out of date.

Length 107 m; draft 2.6 m.

MMSI: 273310200.

Date/timePositionNaut miles runAvg speedWind from/ knotsBaromVisibWave heightAir tempDewpointWater temp
2017-Nov-24 20:09N 45°31' E 036°46'1 6.2
2017-Nov-24 20:00N 45°30' E 036°45'3 6.0
2017-Nov-24 19:31N 45°27' E 036°42'3 6.4
2017-Nov-24 19:00N 45°24' E 036°41'3 5.9
2017-Nov-24 18:31N 45°22' E 036°40'3 5.6
2017-Nov-24 18:00N 45°20' E 036°36'3 5.3
2017-Nov-24 17:31N 45°19' E 036°33'3 5.7
2017-Nov-24 17:00N 45°18' E 036°29'2 3.5
2017-Nov-24 16:31N 45°16' E 036°29'3 5.4
2017-Nov-24 16:01N 45°13' E 036°29'6 5.2
2017-Nov-24 14:56N 45°08' E 036°32'1 1.9
2017-Nov-24 14:21N 45°07' E 036°33'0 0.0
2017-Nov-24 13:59N 45°07' E 036°33'0 0.0
2017-Nov-24 13:30N 45°07' E 036°33'0 0.0
2017-Nov-24 12:58N 45°07' E 036°33'0 0.0
2017-Nov-24 12:29N 45°07' E 036°33'0 0.0
2017-Nov-24 09:12N 45°07' E 036°33'0 0.0
2017-Nov-24 08:13N 45°07' E 036°33'0 0.0
2017-Nov-24 07:51N 45°07' E 036°33'0 0.1
2017-Nov-24 07:16N 45°08' E 036°33'0 0.0
2017-Nov-24 06:40N 45°08' E 036°33'0 0.0
2017-Nov-24 06:16N 45°08' E 036°33'7 0.5
2017-Nov-23 15:37N 45°13' E 036°28'1 6.3
2017-Nov-23 15:29N 45°14' E 036°28'3 6.2
2017-Nov-23 14:59N 45°17' E 036°29'3 6.1
2017-Nov-23 14:31N 45°19' E 036°32'3 6.9
2017-Nov-23 14:00N 45°20' E 036°36'3 6.1
2017-Nov-23 13:31N 45°22' E 036°40'3 6.4
2017-Nov-23 13:00N 45°25' E 036°41'3 5.5
2017-Nov-23 12:31N 45°28' E 036°41'2 4.6
2017-Nov-23 11:59N 45°30' E 036°39'0 0.4
2017-Nov-23 11:31N 45°30' E 036°40'2 3.3
2017-Nov-23 11:00N 45°30' E 036°42'2 3.7
2017-Nov-23 10:30N 45°30' E 036°44'3 6.1
2017-Nov-23 10:00N 45°33' E 036°46'  
2017-Nov-19 00:05N 45°30' E 036°44'1 7.3
2017-Nov-19 00:01N 45°30' E 036°44'4 7.6
2017-Nov-18 23:31N 45°26' E 036°42'4 7.5
2017-Nov-18 23:00N 45°23' E 036°41'3 7.0
2017-Nov-18 22:31N 45°21' E 036°37'4 7.8
2017-Nov-18 22:01N 45°19' E 036°32'3 6.7
2017-Nov-18 21:30N 45°16' E 036°29'3 6.0
2017-Nov-18 21:01N 45°13' E 036°29'3 6.4
2017-Nov-18 20:30N 45°10' E 036°31'0 0.1
2017-Nov-18 18:25N 45°10' E 036°31'1 1.8
2017-Nov-18 18:00N 45°10' E 036°31'2 0.4
2017-Nov-18 12:06N 45°08' E 036°33'0 0.1
2017-Nov-18 11:51N 45°08' E 036°33'0 0.1
2017-Nov-18 11:30N 45°08' E 036°33'0 0.0
2017-Nov-18 10:57N 45°08' E 036°33'0 0.0
2017-Nov-18 10:20N 45°08' E 036°33'0 0.1
2017-Nov-18 09:56N 45°08' E 036°33'0 0.0
2017-Nov-18 08:38N 45°08' E 036°33'0 0.0
2017-Nov-18 08:23N 45°08' E 036°33'0 0.0
2017-Nov-18 07:59N 45°08' E 036°33'0 0.0
2017-Nov-18 07:02N 45°08' E 036°33'0 0.8
2017-Nov-18 06:39N 45°07' E 036°32'1 1.2
2017-Nov-18 06:10N 45°08' E 036°33'0 0.0
2017-Nov-18 05:52N 45°08' E 036°33'0 0.0
2017-Nov-18 05:28N 45°08' E 036°33'0 0.0
2017-Nov-18 00:12N 45°08' E 036°33'6 5.7
2017-Nov-17 23:11N 45°13' E 036°28'6 6.5
2017-Nov-17 22:19N 45°18' E 036°29'2 7.2
2017-Nov-17 22:00N 45°19' E 036°32'4 7.1
2017-Nov-17 21:30N 45°20' E 036°37'3 6.2
2017-Nov-17 21:00N 45°23' E 036°40'3 6.9
2017-Nov-17 20:30N 45°26' E 036°41'2 4.8
2017-Nov-17 20:00N 45°28' E 036°39'1 0.3
2017-Nov-17 16:19N 45°29' E 036°38'0 0.0
2017-Nov-17 15:55N 45°29' E 036°38'0 0.0
2017-Nov-17 15:25N 45°29' E 036°38'0 0.0
2017-Nov-17 14:58N 45°29' E 036°38'0 0.0
2017-Nov-17 14:25N 45°29' E 036°38'0 0.0
2017-Nov-17 13:52N 45°29' E 036°38'0 0.1
2017-Nov-17 13:28N 45°29' E 036°38'0 0.1
2017-Nov-17 12:58N 45°29' E 036°38'0 0.0
2017-Nov-17 12:28N 45°29' E 036°38'0 0.0
2017-Nov-17 11:46N 45°29' E 036°38'0 0.0
2017-Nov-17 11:28N 45°29' E 036°38'0 0.0
2017-Nov-17 10:52N 45°29' E 036°38'0 0.0
2017-Nov-17 10:25N 45°29' E 036°38'0 0.0
2017-Nov-17 09:52N 45°29' E 036°38'0 0.0
2017-Nov-17 09:25N 45°29' E 036°38'0 0.0
2017-Nov-17 08:55N 45°29' E 036°38'0 0.0
2017-Nov-17 08:28N 45°29' E 036°38'0 0.0
2017-Nov-17 07:58N 45°29' E 036°38'0 0.0
2017-Nov-17 07:28N 45°29' E 036°38'0 0.0
2017-Nov-17 06:58N 45°29' E 036°38'0 0.0
2017-Nov-17 06:28N 45°29' E 036°38'0 0.0
2017-Nov-17 05:55N 45°29' E 036°38'0 0.0
2017-Nov-17 05:28N 45°29' E 036°38'0 0.0
2017-Nov-17 04:58N 45°29' E 036°38'0 0.0
2017-Nov-17 04:13N 45°29' E 036°38'0 0.0
2017-Nov-17 03:52N 45°29' E 036°38'0 0.0
2017-Nov-17 03:19N 45°29' E 036°38'0 0.0
2017-Nov-17 02:55N 45°29' E 036°38'0 0.0
2017-Nov-17 02:19N 45°29' E 036°38'0 0.0
2017-Nov-17 01:55N 45°29' E 036°38'0 0.0
2017-Nov-17 01:22N 45°29' E 036°38'0 0.0
2017-Nov-17 00:58N 45°29' E 036°38'0 0.0
2017-Nov-17 00:19N 45°29' E 036°38'0 0.0
2017-Nov-16 22:34N 45°29' E 036°38'0 0.0
2017-Nov-16 22:28N 45°29' E 036°38'0 0.0
2017-Nov-16 21:58N 45°29' E 036°38'0 0.0
2017-Nov-16 21:28N 45°29' E 036°38'0 0.0
2017-Nov-16 20:46N 45°29' E 036°38'0 0.0
2017-Nov-16 20:22N 45°29' E 036°38'0 0.0
2017-Nov-16 18:22N 45°29' E 036°38'0 0.0
2017-Nov-16 17:58N 45°29' E 036°38'0 0.0
2017-Nov-16 17:25N 45°29' E 036°38'0 0.0
2017-Nov-16 16:52N 45°29' E 036°38'0 0.0
2017-Nov-16 16:28N 45°29' E 036°38'0 0.0
2017-Nov-16 14:25N 45°29' E 036°38'0 0.0
2017-Nov-16 13:58N 45°29' E 036°38'0 0.0
2017-Nov-16 13:28N 45°29' E 036°38'0 0.0
2017-Nov-16 12:40N 45°29' E 036°38'0 0.0
2017-Nov-16 11:52N 45°29' E 036°38'0 0.0
2017-Nov-16 11:25N 45°29' E 036°38'0 0.0
2017-Nov-16 10:13N 45°29' E 036°38'0 0.0
2017-Nov-16 09:55N 45°29' E 036°38'0 0.0
2017-Nov-16 09:28N 45°29' E 036°38'0 0.0
2017-Nov-16 08:55N 45°29' E 036°38'0 0.0
2017-Nov-16 08:19N 45°29' E 036°38'0 0.0
2017-Nov-16 07:59N 45°29' E 036°38'0 0.0
2017-Nov-16 07:23N 45°29' E 036°38'0 0.0
2017-Nov-16 06:20N 45°29' E 036°38'0 0.0
2017-Nov-16 05:59N 45°29' E 036°38'0 0.0
2017-Nov-16 04:23N 45°29' E 036°38'0 0.0
2017-Nov-16 03:47N 45°29' E 036°38'0 0.0
2017-Nov-16 03:29N 45°29' E 036°38'0 0.0
2017-Nov-16 02:59N 45°29' E 036°38'0 0.0
2017-Nov-16 02:29N 45°29' E 036°38'0 0.0
2017-Nov-16 01:59N 45°29' E 036°38'0 0.0
2017-Nov-16 01:29N 45°29' E 036°38'0 0.0
2017-Nov-16 01:00N 45°29' E 036°38'0 0.0
2017-Nov-16 00:28N 45°29' E 036°38'0 0.0
2017-Nov-15 23:57N 45°29' E 036°38'0 0.0
2017-Nov-15 23:30N 45°29' E 036°38'0 0.0
2017-Nov-15 23:00N 45°29' E 036°38'0 0.0
2017-Nov-15 22:30N 45°29' E 036°38'0 0.0
2017-Nov-15 22:00N 45°29' E 036°38'0 0.0
2017-Nov-15 21:30N 45°29' E 036°38'0 0.0
2017-Nov-15 21:00N 45°29' E 036°38'0 0.0
2017-Nov-15 20:30N 45°29' E 036°38'0 0.0
2017-Nov-15 20:00N 45°29' E 036°38'0 0.0
2017-Nov-15 19:30N 45°29' E 036°38'0 0.0
2017-Nov-15 19:00N 45°29' E 036°38'0 0.0
2017-Nov-15 18:30N 45°29' E 036°38'0 0.0
2017-Nov-15 18:00N 45°29' E 036°38'0 0.0
2017-Nov-15 17:30N 45°29' E 036°38'0 0.0
2017-Nov-15 17:00N 45°29' E 036°38'0 0.0
2017-Nov-15 16:30N 45°29' E 036°38'0 0.0
2017-Nov-15 16:00N 45°29' E 036°38'0 0.0
2017-Nov-15 15:25N 45°29' E 036°38'0 0.0
2017-Nov-15 14:59N 45°29' E 036°38'0 0.0
2017-Nov-15 14:30N 45°29' E 036°38'0 0.0
2017-Nov-15 13:52N 45°29' E 036°38'0 0.0
2017-Nov-15 13:30N 45°29' E 036°38'0 0.0
2017-Nov-15 13:00N 45°29' E 036°38'0 0.0
2017-Nov-15 12:30N 45°29' E 036°38'0 0.0
2017-Nov-15 12:00N 45°29' E 036°38'0 0.0
2017-Nov-15 11:30N 45°29' E 036°38'0 0.0
2017-Nov-15 11:00N 45°29' E 036°38'0 0.0
2017-Nov-15 10:30N 45°29' E 036°38'0 0.0
2017-Nov-15 10:00N 45°29' E 036°38'0 0.0
2017-Nov-15 09:30N 45°29' E 036°38'0 0.0
2017-Nov-15 09:00N 45°29' E 036°38'0 0.0
2017-Nov-15 08:30N 45°29' E 036°38'0 0.0
2017-Nov-15 08:00N 45°29' E 036°38'0 0.0
2017-Nov-15 07:30N 45°29' E 036°38'0 0.0
2017-Nov-15 07:00N 45°29' E 036°38'0 0.0
2017-Nov-15 06:30N 45°29' E 036°38'0 0.0
2017-Nov-15 05:59N 45°29' E 036°38'0 0.0
2017-Nov-15 05:30N 45°29' E 036°38'0 0.0
2017-Nov-15 05:00N 45°29' E 036°38'0 0.0
2017-Nov-15 04:30N 45°29' E 036°38'0 0.0
2017-Nov-15 04:00N 45°29' E 036°38'0 0.0
2017-Nov-15 03:30N 45°29' E 036°38'0 0.0
2017-Nov-15 03:00N 45°29' E 036°38'0 0.0
2017-Nov-15 02:30N 45°29' E 036°38'0 0.0
2017-Nov-15 02:00N 45°29' E 036°38'0 0.0
2017-Nov-15 01:30N 45°29' E 036°38'0 0.0
2017-Nov-15 00:41N 45°29' E 036°38'0 0.0
2017-Nov-15 00:30N 45°29' E 036°38'0 0.0
2017-Nov-14 23:45N 45°29' E 036°38'0 0.0
2017-Nov-14 23:30N 45°29' E 036°38'0 0.0
2017-Nov-14 23:00N 45°29' E 036°38'0 0.0
2017-Nov-14 22:30N 45°29' E 036°38'0 0.0
2017-Nov-14 20:34N 45°29' E 036°38'0 0.0
2017-Nov-14 20:27N 45°29' E 036°38'  
Track history (hours):
 
Tides and Currents Weather Stations Pressure Air Temp Water Temp Dewpoint Dewpoint Depression Visibility Wind Speed Wind Dir Waves Ship Positions

Volzhskiy-8

Last reported at 2017-Nov-24 20:09 UTC. Time now 2017-Dec-11 02:33 UTC.
Position N 45°31' E 036°46'.
Warning: this ship's position is 16 days out of date.

Length 107 m; draft 2.6 m.

MMSI: 273310200.

Date/timePositionNaut miles runAvg speedWind from/ knotsBaromVisibWave heightAir tempDewpointWater temp
2017-Nov-24 20:09N 45°31' E 036°46'1 6.2
2017-Nov-24 20:00N 45°30' E 036°45'3 6.0
2017-Nov-24 19:31N 45°27' E 036°42'3 6.4
2017-Nov-24 19:00N 45°24' E 036°41'3 5.9
2017-Nov-24 18:31N 45°22' E 036°40'3 5.6
2017-Nov-24 18:00N 45°20' E 036°36'3 5.3
2017-Nov-24 17:31N 45°19' E 036°33'3 5.7
2017-Nov-24 17:00N 45°18' E 036°29'2 3.5
2017-Nov-24 16:31N 45°16' E 036°29'3 5.4
2017-Nov-24 16:01N 45°13' E 036°29'6 5.2
2017-Nov-24 14:56N 45°08' E 036°32'1 1.9
2017-Nov-24 14:21N 45°07' E 036°33'0 0.0
2017-Nov-24 13:59N 45°07' E 036°33'0 0.0
2017-Nov-24 13:30N 45°07' E 036°33'0 0.0
2017-Nov-24 12:58N 45°07' E 036°33'0 0.0
2017-Nov-24 12:29N 45°07' E 036°33'0 0.0
2017-Nov-24 09:12N 45°07' E 036°33'0 0.0
2017-Nov-24 08:13N 45°07' E 036°33'0 0.0
2017-Nov-24 07:51N 45°07' E 036°33'0 0.1
2017-Nov-24 07:16N 45°08' E 036°33'0 0.0
2017-Nov-24 06:40N 45°08' E 036°33'0 0.0
2017-Nov-24 06:16N 45°08' E 036°33'7 0.5
2017-Nov-23 15:37N 45°13' E 036°28'1 6.3
2017-Nov-23 15:29N 45°14' E 036°28'3 6.2
2017-Nov-23 14:59N 45°17' E 036°29'3 6.1
2017-Nov-23 14:31N 45°19' E 036°32'3 6.9
2017-Nov-23 14:00N 45°20' E 036°36'3 6.1
2017-Nov-23 13:31N 45°22' E 036°40'3 6.4
2017-Nov-23 13:00N 45°25' E 036°41'3 5.5
2017-Nov-23 12:31N 45°28' E 036°41'2 4.6
2017-Nov-23 11:59N 45°30' E 036°39'0 0.4
2017-Nov-23 11:31N 45°30' E 036°40'2 3.3
2017-Nov-23 11:00N 45°30' E 036°42'2 3.7
2017-Nov-23 10:30N 45°30' E 036°44'3 6.1
2017-Nov-23 10:00N 45°33' E 036°46'  
2017-Nov-19 00:05N 45°30' E 036°44'1 7.3
2017-Nov-19 00:01N 45°30' E 036°44'4 7.6
2017-Nov-18 23:31N 45°26' E 036°42'4 7.5
2017-Nov-18 23:00N 45°23' E 036°41'3 7.0
2017-Nov-18 22:31N 45°21' E 036°37'4 7.8
2017-Nov-18 22:01N 45°19' E 036°32'3 6.7
2017-Nov-18 21:30N 45°16' E 036°29'3 6.0
2017-Nov-18 21:01N 45°13' E 036°29'3 6.4
2017-Nov-18 20:30N 45°10' E 036°31'0 0.1
2017-Nov-18 18:25N 45°10' E 036°31'1 1.8
2017-Nov-18 18:00N 45°10' E 036°31'2 0.4
2017-Nov-18 12:06N 45°08' E 036°33'0 0.1
2017-Nov-18 11:51N 45°08' E 036°33'0 0.1
2017-Nov-18 11:30N 45°08' E 036°33'0 0.0
2017-Nov-18 10:57N 45°08' E 036°33'0 0.0
2017-Nov-18 10:20N 45°08' E 036°33'0 0.1
2017-Nov-18 09:56N 45°08' E 036°33'0 0.0
2017-Nov-18 08:38N 45°08' E 036°33'0 0.0
2017-Nov-18 08:23N 45°08' E 036°33'0 0.0
2017-Nov-18 07:59N 45°08' E 036°33'0 0.0
2017-Nov-18 07:02N 45°08' E 036°33'0 0.8
2017-Nov-18 06:39N 45°07' E 036°32'1 1.2
2017-Nov-18 06:10N 45°08' E 036°33'0 0.0
2017-Nov-18 05:52N 45°08' E 036°33'0 0.0
2017-Nov-18 05:28N 45°08' E 036°33'0 0.0
2017-Nov-18 00:12N 45°08' E 036°33'6 5.7
2017-Nov-17 23:11N 45°13' E 036°28'6 6.5
2017-Nov-17 22:19N 45°18' E 036°29'2 7.2
2017-Nov-17 22:00N 45°19' E 036°32'4 7.1
2017-Nov-17 21:30N 45°20' E 036°37'3 6.2
2017-Nov-17 21:00N 45°23' E 036°40'3 6.9
2017-Nov-17 20:30N 45°26' E 036°41'2 4.8
2017-Nov-17 20:00N 45°28' E 036°39'1 0.3
2017-Nov-17 16:19N 45°29' E 036°38'0 0.0
2017-Nov-17 15:55N 45°29' E 036°38'0 0.0
2017-Nov-17 15:25N 45°29' E 036°38'0 0.0
2017-Nov-17 14:58N 45°29' E 036°38'0 0.0
2017-Nov-17 14:25N 45°29' E 036°38'0 0.0
2017-Nov-17 13:52N 45°29' E 036°38'0 0.1
2017-Nov-17 13:28N 45°29' E 036°38'0 0.1
2017-Nov-17 12:58N 45°29' E 036°38'0 0.0
2017-Nov-17 12:28N 45°29' E 036°38'0 0.0
2017-Nov-17 11:46N 45°29' E 036°38'0 0.0
2017-Nov-17 11:28N 45°29' E 036°38'0 0.0
2017-Nov-17 10:52N 45°29' E 036°38'0 0.0
2017-Nov-17 10:25N 45°29' E 036°38'0 0.0
2017-Nov-17 09:52N 45°29' E 036°38'0 0.0
2017-Nov-17 09:25N 45°29' E 036°38'0 0.0
2017-Nov-17 08:55N 45°29' E 036°38'0 0.0
2017-Nov-17 08:28N 45°29' E 036°38'0 0.0
2017-Nov-17 07:58N 45°29' E 036°38'0 0.0
2017-Nov-17 07:28N 45°29' E 036°38'0 0.0
2017-Nov-17 06:58N 45°29' E 036°38'0 0.0
2017-Nov-17 06:28N 45°29' E 036°38'0 0.0
2017-Nov-17 05:55N 45°29' E 036°38'0 0.0
2017-Nov-17 05:28N 45°29' E 036°38'0 0.0
2017-Nov-17 04:58N 45°29' E 036°38'0 0.0
2017-Nov-17 04:13N 45°29' E 036°38'0 0.0
2017-Nov-17 03:52N 45°29' E 036°38'0 0.0
2017-Nov-17 03:19N 45°29' E 036°38'0 0.0
2017-Nov-17 02:55N 45°29' E 036°38'0 0.0
2017-Nov-17 02:19N 45°29' E 036°38'0 0.0
2017-Nov-17 01:55N 45°29' E 036°38'0 0.0
2017-Nov-17 01:22N 45°29' E 036°38'0 0.0
2017-Nov-17 00:58N 45°29' E 036°38'0 0.0
2017-Nov-17 00:19N 45°29' E 036°38'0 0.0
2017-Nov-16 22:34N 45°29' E 036°38'0 0.0
2017-Nov-16 22:28N 45°29' E 036°38'0 0.0
2017-Nov-16 21:58N 45°29' E 036°38'0 0.0
2017-Nov-16 21:28N 45°29' E 036°38'0 0.0
2017-Nov-16 20:46N 45°29' E 036°38'0 0.0
2017-Nov-16 20:22N 45°29' E 036°38'0 0.0
2017-Nov-16 18:22N 45°29' E 036°38'0 0.0
2017-Nov-16 17:58N 45°29' E 036°38'0 0.0
2017-Nov-16 17:25N 45°29' E 036°38'0 0.0
2017-Nov-16 16:52N 45°29' E 036°38'0 0.0
2017-Nov-16 16:28N 45°29' E 036°38'0 0.0
2017-Nov-16 14:25N 45°29' E 036°38'0 0.0
2017-Nov-16 13:58N 45°29' E 036°38'0 0.0
2017-Nov-16 13:28N 45°29' E 036°38'0 0.0
2017-Nov-16 12:40N 45°29' E 036°38'0 0.0
2017-Nov-16 11:52N 45°29' E 036°38'0 0.0
2017-Nov-16 11:25N 45°29' E 036°38'0 0.0
2017-Nov-16 10:13N 45°29' E 036°38'0 0.0
2017-Nov-16 09:55N 45°29' E 036°38'0 0.0
2017-Nov-16 09:28N 45°29' E 036°38'0 0.0
2017-Nov-16 08:55N 45°29' E 036°38'0 0.0
2017-Nov-16 08:19N 45°29' E 036°38'0 0.0
2017-Nov-16 07:59N 45°29' E 036°38'0 0.0
2017-Nov-16 07:23N 45°29' E 036°38'0 0.0
2017-Nov-16 06:20N 45°29' E 036°38'0 0.0
2017-Nov-16 05:59N 45°29' E 036°38'0 0.0
2017-Nov-16 04:23N 45°29' E 036°38'0 0.0
2017-Nov-16 03:47N 45°29' E 036°38'0 0.0
2017-Nov-16 03:29N 45°29' E 036°38'0 0.0
2017-Nov-16 02:59N 45°29' E 036°38'0 0.0
2017-Nov-16 02:29N 45°29' E 036°38'0 0.0
2017-Nov-16 01:59N 45°29' E 036°38'0 0.0
2017-Nov-16 01:29N 45°29' E 036°38'0 0.0
2017-Nov-16 01:00N 45°29' E 036°38'0 0.0
2017-Nov-16 00:28N 45°29' E 036°38'0 0.0
2017-Nov-15 23:57N 45°29' E 036°38'0 0.0
2017-Nov-15 23:30N 45°29' E 036°38'0 0.0
2017-Nov-15 23:00N 45°29' E 036°38'0 0.0
2017-Nov-15 22:30N 45°29' E 036°38'0 0.0
2017-Nov-15 22:00N 45°29' E 036°38'0 0.0
2017-Nov-15 21:30N 45°29' E 036°38'0 0.0
2017-Nov-15 21:00N 45°29' E 036°38'0 0.0
2017-Nov-15 20:30N 45°29' E 036°38'0 0.0
2017-Nov-15 20:00N 45°29' E 036°38'0 0.0
2017-Nov-15 19:30N 45°29' E 036°38'0 0.0
2017-Nov-15 19:00N 45°29' E 036°38'0 0.0
2017-Nov-15 18:30N 45°29' E 036°38'0 0.0
2017-Nov-15 18:00N 45°29' E 036°38'0 0.0
2017-Nov-15 17:30N 45°29' E 036°38'0 0.0
2017-Nov-15 17:00N 45°29' E 036°38'0 0.0
2017-Nov-15 16:30N 45°29' E 036°38'0 0.0
2017-Nov-15 16:00N 45°29' E 036°38'0 0.0
2017-Nov-15 15:25N 45°29' E 036°38'0 0.0
2017-Nov-15 14:59N 45°29' E 036°38'0 0.0
2017-Nov-15 14:30N 45°29' E 036°38'0 0.0
2017-Nov-15 13:52N 45°29' E 036°38'0 0.0
2017-Nov-15 13:30N 45°29' E 036°38'0 0.0
2017-Nov-15 13:00N 45°29' E 036°38'0 0.0
2017-Nov-15 12:30N 45°29' E 036°38'0 0.0
2017-Nov-15 12:00N 45°29' E 036°38'0 0.0
2017-Nov-15 11:30N 45°29' E 036°38'0 0.0
2017-Nov-15 11:00N 45°29' E 036°38'0 0.0
2017-Nov-15 10:30N 45°29' E 036°38'0 0.0
2017-Nov-15 10:00N 45°29' E 036°38'0 0.0
2017-Nov-15 09:30N 45°29' E 036°38'0 0.0
2017-Nov-15 09:00N 45°29' E 036°38'0 0.0
2017-Nov-15 08:30N 45°29' E 036°38'0 0.0
2017-Nov-15 08:00N 45°29' E 036°38'0 0.0
2017-Nov-15 07:30N 45°29' E 036°38'0 0.0
2017-Nov-15 07:00N 45°29' E 036°38'0 0.0
2017-Nov-15 06:30N 45°29' E 036°38'0 0.0
2017-Nov-15 05:59N 45°29' E 036°38'0 0.0
2017-Nov-15 05:30N 45°29' E 036°38'0 0.0
2017-Nov-15 05:00N 45°29' E 036°38'0 0.0
2017-Nov-15 04:30N 45°29' E 036°38'0 0.0
2017-Nov-15 04:00N 45°29' E 036°38'0 0.0
2017-Nov-15 03:30N 45°29' E 036°38'0 0.0
2017-Nov-15 03:00N 45°29' E 036°38'0 0.0
2017-Nov-15 02:30N 45°29' E 036°38'0 0.0
2017-Nov-15 02:00N 45°29' E 036°38'0 0.0
2017-Nov-15 01:30N 45°29' E 036°38'0 0.0
2017-Nov-15 00:41N 45°29' E 036°38'0 0.0
2017-Nov-15 00:30N 45°29' E 036°38'0 0.0
2017-Nov-14 23:45N 45°29' E 036°38'0 0.0
2017-Nov-14 23:30N 45°29' E 036°38'0 0.0
2017-Nov-14 23:00N 45°29' E 036°38'0 0.0
2017-Nov-14 22:30N 45°29' E 036°38'0 0.0
2017-Nov-14 20:34N 45°29' E 036°38'0 0.0
2017-Nov-14 20:27N 45°29' E 036°38'  

Dump ship's entire track history